< < Back
Terminal Aerodrome Forecast


Current Version              Previous Versions:   1  2  3  4  5  6  7  8  9  

Terminal Aerodrome Forecast

924
FTUS42 KFFC 271726
TAFCSG
TAF
KCSG 271726Z 2718/2818 VRB04KT P6SM BKN045
     FM272000 17006KT P6SM VCSH BKN040
      TEMPO 2721/2724 3SM -TSRA BKN025CB
     FM280000 VRB03KT P6SM BKN040
     FM280500 VRB03KT P6SM SCT020 BKN080
     FM281000 VRB03KT P6SM BKN015
     FM281400 14003KT P6SM BKN025=

Latest METAR

560
SAUS70 KWBC 271900 RRX
MTRCSG
METAR KCSG 271951Z 14006KT 10SM SCT035 SCT065 BKN080 28/19 A3016 RMK AO2
SLP207 T02780194


USA.gov is the U.S. government's official web portal to all federal, state and local government web resources and services.